Terminal Aerodrome Forecast
Issued by NWS

Home | Current Version | Previous Version | Text Only | Print | Product List | Glossary On
Versions: 1 2 3 4 5 6 7 8 9 10 11 12 13 14 15
631
FTUS46 KMTR 291720
TAFOAK
TAF
KOAK 291720Z 2918/3024 27006KT P6SM FEW012
      TEMPO 2918/2919 BKN011
     FM292000 28011KT P6SM SCT012
      TEMPO 3004/3008 BKN012
     FM300800 28006KT P6SM OVC012
     FM301700 26006KT P6SM SCT013
      TEMPO 3017/3018 BKN012
     FM301900 27010KT P6SM FEW013
     FM302100 28020G28KT P6SM SKC=

USA.gov is the U.S. government's official web portal to all federal, state and local government web resources and services.